createdAt,value
2018-05-25T16:06:56.419Z,2.65
2018-05-25T16:09:26.636Z,2.95
2018-05-25T16:11:56.134Z,2.83
2018-05-25T16:16:03.084Z,2.92
2018-05-25T16:18:32.556Z,2.85
2018-05-25T16:21:02.618Z,3.20
2018-05-25T16:23:32.526Z,9.65
2018-05-25T16:26:02.837Z,3.22
2018-05-25T16:28:33.004Z,2.90
2018-05-25T16:31:06.950Z,2.83
2018-05-25T16:33:59.270Z,3.10
2018-05-25T16:36:29.897Z,2.90
2018-05-25T16:38:59.326Z,3.10
2018-05-25T16:41:29.561Z,2.90
2018-05-25T16:44:00.021Z,2.97
2018-05-25T16:46:29.497Z,3.17
2018-05-25T16:48:59.005Z,2.83
2018-05-25T16:51:28.668Z,3.50
2018-05-25T16:54:08.771Z,3.08
2018-05-25T16:56:40.249Z,2.97
2018-05-25T16:59:09.781Z,3.00
2018-05-25T17:01:53.142Z,2.90
2018-05-25T17:04:28.337Z,3.07
2018-05-25T17:06:58.607Z,3.23
2018-05-25T17:09:29.971Z,3.23
2018-05-25T17:12:00.776Z,3.40
2018-05-25T17:14:30.288Z,3.40
2018-05-25T17:16:59.901Z,3.30
2018-05-25T17:19:29.504Z,3.30
2018-05-25T17:22:00.464Z,3.37
2018-05-25T17:24:32.058Z,3.00
2018-05-25T17:27:03.071Z,3.70
2018-05-25T17:29:33.933Z,4.13
2018-05-25T17:32:03.738Z,4.47
2018-05-25T17:34:35.643Z,4.00
2018-05-25T17:37:05.408Z,4.40
2018-05-25T17:39:35.953Z,3.57
2018-05-25T17:42:05.455Z,3.63
2018-05-25T17:44:34.963Z,3.63
2018-05-25T17:47:09.384Z,3.70
2018-05-25T17:49:40.059Z,4.10
2018-05-25T17:52:09.683Z,3.73
2018-05-25T17:54:44.704Z,3.90
2018-05-25T17:57:15.713Z,4.13
2018-05-25T17:59:46.349Z,4.67
2018-05-25T18:02:16.676Z,4.70
2018-05-25T18:04:56.728Z,4.40
2018-05-25T18:07:27.897Z,5.37
2018-05-25T18:09:58.868Z,4.53
2018-05-25T18:12:29.980Z,4.87
2018-05-25T18:15:02.062Z,5.40
2018-05-25T18:17:32.542Z,5.40
2018-05-25T18:20:02.824Z,6.00
2018-05-25T18:22:33.184Z,5.63
2018-05-25T18:25:03.793Z,6.70
2018-05-25T18:27:33.518Z,6.03
2018-05-25T18:30:03.119Z,6.17
2018-05-25T18:32:32.782Z,5.83
2018-05-25T18:35:03.175Z,5.63
2018-05-25T18:37:32.676Z,6.20
2018-05-25T18:40:02.616Z,5.80
2018-05-25T18:42:32.282Z,6.07
2018-05-25T18:45:02.577Z,6.70
2018-05-25T18:47:36.533Z,6.73
2018-05-25T18:50:08.186Z,6.77
2018-05-25T18:52:37.782Z,6.83
2018-05-25T18:55:08.144Z,7.07
2018-05-25T18:57:37.730Z,6.83
2018-05-25T19:00:07.405Z,7.27
2018-05-25T19:02:37.688Z,6.97
2018-05-25T19:05:07.249Z,7.37
2018-05-25T19:07:37.550Z,7.57
2018-05-25T19:10:10.150Z,7.93
2018-05-25T19:12:41.530Z,7.80
2018-05-25T19:15:11.721Z,7.57
2018-05-25T19:17:46.077Z,7.27
2018-05-25T19:20:21.290Z,7.50
2018-05-25T19:22:52.132Z,7.93
2018-05-25T19:25:23.524Z,7.73
2018-05-25T19:27:53.607Z,8.20
2018-05-25T19:30:24.792Z,8.57
2018-05-25T19:32:54.462Z,7.87
2018-05-25T19:35:26.937Z,7.27
2018-05-25T19:37:58.175Z,8.00
2018-05-25T19:40:31.021Z,7.47
2018-05-25T19:43:02.280Z,7.63
2018-05-25T19:45:33.260Z,7.47
2018-05-25T19:48:07.199Z,8.83
2018-05-25T19:50:37.406Z,7.87
2018-05-25T19:53:08.276Z,7.77
2018-05-25T19:55:38.970Z,8.00
2018-05-25T19:58:09.849Z,8.27
2018-05-25T20:00:40.634Z,7.03
2018-05-25T20:03:11.738Z,7.40
2018-05-25T20:05:42.452Z,8.57
2018-05-25T20:08:14.421Z,8.17
2018-05-25T20:10:44.539Z,7.73
2018-05-25T20:13:15.989Z,7.70
2018-05-25T20:15:47.906Z,7.27
2018-05-25T20:18:19.097Z,7.73
2018-05-25T20:20:49.709Z,8.17
2018-05-25T20:23:32.757Z,7.73
2018-05-25T20:26:04.371Z,7.10
2018-05-25T20:28:33.970Z,7.40
2018-05-25T20:31:03.685Z,7.73
2018-05-25T20:33:33.702Z,7.73
2018-05-25T20:36:04.070Z,7.77
2018-05-25T20:38:34.221Z,7.60
2018-05-25T20:41:05.059Z,7.77
2018-05-25T20:43:36.370Z,7.67
2018-05-25T20:46:06.347Z,8.20
2018-05-25T20:48:36.508Z,8.00
2018-05-25T20:51:07.373Z,7.67
2018-05-25T20:53:37.630Z,8.10
2018-05-25T20:56:07.249Z,8.30
2018-05-25T20:58:36.863Z,8.40
2018-05-25T21:01:06.678Z,8.07
2018-05-25T21:03:36.387Z,7.33
2018-05-25T21:06:05.992Z,7.40
2018-05-25T21:08:45.057Z,7.63
2018-05-25T21:11:28.212Z,8.03
2018-05-25T21:13:58.881Z,8.47
2018-05-25T21:16:29.022Z,8.70
2018-05-25T21:18:58.543Z,9.10
2018-05-25T21:21:28.770Z,8.70
2018-05-25T21:23:58.817Z,8.70
2018-05-25T21:26:29.289Z,8.70
2018-05-25T21:28:58.790Z,8.60
2018-05-25T21:31:29.532Z,7.93
2018-05-25T21:33:59.177Z,8.27
2018-05-25T21:36:32.260Z,7.73
2018-05-25T21:39:02.940Z,7.10
2018-05-25T21:41:33.831Z,7.50
2018-05-25T21:44:06.132Z,7.43
2018-05-25T21:46:36.552Z,8.23
2018-05-25T21:49:07.170Z,7.80
2018-05-25T21:51:39.536Z,8.17
2018-05-25T21:54:09.301Z,8.80
2018-05-25T21:56:39.126Z,7.97
2018-05-25T21:59:08.684Z,7.77
2018-05-25T22:01:38.708Z,8.77
2018-05-25T22:04:09.180Z,8.37
2018-05-25T22:06:38.862Z,8.50
2018-05-25T22:09:08.823Z,8.90
2018-05-25T22:11:39.399Z,8.33
2018-05-25T22:14:09.666Z,9.10
2018-05-25T22:16:39.330Z,8.80
2018-05-25T22:19:09.216Z,8.27
2018-05-25T22:21:39.681Z,8.63
2018-05-25T22:24:09.354Z,8.13
2018-05-25T22:29:42.610Z,8.93
2018-05-25T22:32:13.070Z,9.90
2018-05-25T22:34:43.894Z,9.23
2018-05-25T22:37:13.704Z,9.33
2018-05-25T22:39:43.627Z,9.77
2018-05-25T22:42:12.681Z,9.90
2018-05-25T22:45:06.011Z,10.30
2018-05-25T22:54:35.779Z,9.00
2018-05-25T22:57:06.052Z,9.30
2018-05-25T22:59:36.965Z,9.07
2018-05-25T23:02:06.484Z,11.10
2018-05-25T23:04:36.154Z,10.03
2018-05-25T23:07:06.593Z,10.30
2018-05-25T23:09:36.645Z,11.23
2018-05-25T23:12:06.381Z,11.77
2018-05-25T23:14:36.062Z,11.27
2018-05-25T23:17:05.647Z,11.73
2018-05-25T23:19:36.460Z,11.73
2018-05-25T23:22:06.145Z,10.80
2018-05-25T23:24:36.644Z,11.97
2018-05-25T23:27:06.271Z,11.00
2018-05-25T23:29:35.739Z,10.37
2018-05-25T23:32:06.431Z,11.30
2018-05-25T23:34:35.965Z,12.30
2018-05-25T23:37:05.596Z,12.80
2018-05-25T23:39:35.168Z,12.70
2018-05-25T23:45:14.031Z,12.80
2018-05-25T23:47:52.455Z,13.13
2018-05-25T23:50:24.371Z,13.77
2018-05-25T23:52:55.175Z,14.73
2018-05-25T23:55:36.285Z,14.47
2018-05-25T23:58:06.044Z,15.13
